createdAt,value
2017-10-25T00:00:05.007Z,0
2017-10-25T00:01:04.996Z,0
2017-10-25T00:02:05.317Z,0
2017-10-25T00:03:04.967Z,0
2017-10-25T00:04:05.295Z,0
2017-10-25T00:05:05.294Z,0
2017-10-25T00:06:04.939Z,0
2017-10-25T00:07:04.579Z,0
2017-10-25T00:08:04.913Z,0
2017-10-25T00:09:04.558Z,0
2017-10-25T00:10:04.547Z,0
2017-10-25T00:11:04.531Z,0
2017-10-25T00:12:04.856Z,0
2017-10-25T00:13:04.502Z,0
2017-10-25T00:14:05.168Z,0
2017-10-25T00:15:04.820Z,0
2017-10-25T00:16:04.810Z,0
2017-10-25T00:17:04.123Z,0
2017-10-25T00:18:04.443Z,0
2017-10-25T00:19:04.770Z,0
2017-10-25T00:20:04.419Z,0
2017-10-25T00:21:04.759Z,0
2017-10-25T00:22:05.062Z,0
2017-10-25T00:23:04.725Z,0
2017-10-25T00:24:04.691Z,0
2017-10-25T00:25:04.686Z,0
2017-10-25T00:26:04.670Z,0
2017-10-25T00:27:04.660Z,0
2017-10-25T00:28:04.642Z,0
2017-10-25T00:29:04.628Z,0
2017-10-25T00:30:04.628Z,0
2017-10-25T00:31:04.604Z,0
2017-10-25T00:32:04.606Z,0
2017-10-25T00:33:04.259Z,0
2017-10-25T00:34:04.245Z,0
2017-10-25T00:35:04.910Z,0
2017-10-25T00:36:04.542Z,0
2017-10-25T00:37:04.539Z,0
2017-10-25T00:38:04.845Z,0
2017-10-25T00:39:04.501Z,0
2017-10-25T00:40:04.490Z,0
2017-10-25T00:41:04.492Z,0
2017-10-25T00:42:04.465Z,0
2017-10-25T00:43:04.126Z,0
2017-10-25T00:44:04.435Z,0
2017-10-25T00:45:04.428Z,0
2017-10-25T00:46:04.421Z,0
2017-10-25T00:47:04.729Z,0
2017-10-25T00:48:04.391Z,0
2017-10-25T00:49:04.372Z,0
2017-10-25T00:50:04.366Z,0
2017-10-25T00:51:04.011Z,0
2017-10-25T00:52:04.354Z,0
2017-10-25T00:53:04.329Z,0
2017-10-25T00:54:04.308Z,0
2017-10-25T00:55:04.300Z,0
2017-10-25T00:56:04.629Z,0
2017-10-25T00:57:04.274Z,0
2017-10-25T00:58:04.268Z,0
2017-10-25T00:59:03.921Z,0
2017-10-25T01:00:03.585Z,0
2017-10-25T01:01:04.561Z,0
2017-10-25T01:02:04.217Z,0
2017-10-25T01:03:04.531Z,0
2017-10-25T01:04:04.186Z,0
2017-10-25T01:05:04.511Z,0
2017-10-25T01:06:04.166Z,0
2017-10-25T01:07:04.146Z,0
2017-10-25T01:08:04.144Z,0
2017-10-25T01:09:03.457Z,0
2017-10-25T01:10:04.442Z,0
2017-10-25T01:11:03.762Z,0
2017-10-25T01:12:03.763Z,0
2017-10-25T01:13:04.407Z,0
2017-10-25T01:14:03.723Z,0
2017-10-25T01:15:03.714Z,0
2017-10-25T01:16:04.029Z,0
2017-10-25T01:17:03.686Z,0
2017-10-25T01:18:04.014Z,0
2017-10-25T01:19:03.671Z,0
2017-10-25T01:20:03.641Z,0
2017-10-25T01:21:03.992Z,0
2017-10-25T01:22:04.302Z,0
2017-10-25T01:23:04.007Z,0
2017-10-25T01:24:04.272Z,0
2017-10-25T01:25:04.142Z,0
2017-10-25T01:26:03.576Z,0
2017-10-25T01:27:03.566Z,0
2017-10-25T01:28:03.886Z,0
2017-10-25T01:29:04.208Z,0
2017-10-25T01:30:03.875Z,0
2017-10-25T01:31:03.845Z,0
2017-10-25T01:32:03.836Z,0
2017-10-25T01:33:03.825Z,0
2017-10-25T01:34:04.147Z,0
2017-10-25T01:35:03.459Z,0
2017-10-25T01:36:03.460Z,0
2017-10-25T01:37:04.111Z,0
2017-10-25T01:38:03.766Z,0
2017-10-25T01:39:03.745Z,0
2017-10-25T01:40:03.734Z,0
2017-10-25T01:41:04.050Z,0
2017-10-25T01:42:03.705Z,0
2017-10-25T01:43:03.694Z,0
2017-10-25T01:44:03.353Z,0
2017-10-25T01:45:03.674Z,0
2017-10-25T01:46:02.991Z,0
2017-10-25T01:47:03.994Z,0
2017-10-25T01:48:03.653Z,0
2017-10-25T01:49:03.299Z,0
2017-10-25T01:50:03.615Z,0
2017-10-25T01:51:03.941Z,0
2017-10-25T01:52:03.596Z,0
2017-10-25T01:53:03.240Z,0
2017-10-25T01:54:03.895Z,0
2017-10-25T01:55:03.891Z,0
2017-10-25T01:56:03.532Z,0
2017-10-25T01:57:03.186Z,0
2017-10-25T01:58:02.847Z,0
2017-10-25T01:59:03.176Z,0
2017-10-25T02:00:03.831Z,0
2017-10-25T02:01:03.476Z,0
2017-10-25T02:02:03.472Z,0
2017-10-25T02:03:03.108Z,0
2017-10-25T02:04:03.111Z,0
2017-10-25T02:05:03.428Z,0
2017-10-25T02:06:03.411Z,0
2017-10-25T02:07:03.409Z,0
2017-10-25T02:08:03.741Z,0
2017-10-25T02:09:03.715Z,0
2017-10-25T02:10:02.692Z,0
2017-10-25T02:11:03.553Z,0
2017-10-25T02:12:02.668Z,0
2017-10-25T02:13:03.335Z,0
2017-10-25T02:14:03.316Z,0
2017-10-25T02:15:02.984Z,0
2017-10-25T02:16:03.627Z,0
2017-10-25T02:17:03.611Z,0
2017-10-25T02:18:03.264Z,0
2017-10-25T02:19:03.247Z,0
2017-10-25T02:20:03.254Z,0
2017-10-25T02:21:02.560Z,0
2017-10-25T02:22:03.212Z,0
2017-10-25T02:23:03.538Z,0
2017-10-25T02:24:03.517Z,0
2017-10-25T02:25:03.514Z,0
2017-10-25T02:26:02.828Z,0
2017-10-25T02:27:03.483Z,0
2017-10-25T02:28:03.131Z,0
2017-10-25T02:29:02.463Z,0
2017-10-25T02:30:03.112Z,0
2017-10-25T02:31:02.758Z,0
2017-10-25T02:32:03.087Z,0
2017-10-25T02:33:02.740Z,0
2017-10-25T02:34:03.398Z,0
2017-10-25T02:35:03.040Z,0
2017-10-25T02:36:02.709Z,0
2017-10-25T02:37:02.688Z,0
2017-10-25T02:38:02.669Z,0
2017-10-25T02:39:02.657Z,0
2017-10-25T02:40:02.979Z,0
2017-10-25T02:41:03.303Z,0
2017-10-25T02:42:02.635Z,0
2017-10-25T02:43:02.940Z,0
2017-10-25T02:44:03.261Z,0
2017-10-25T02:45:02.909Z,0
2017-10-25T02:46:02.565Z,0
2017-10-25T02:47:02.898Z,0
2017-10-25T02:48:02.888Z,0
2017-10-25T02:49:03.198Z,0
2017-10-25T02:50:02.514Z,0
2017-10-25T02:51:02.837Z,0
2017-10-25T02:52:02.488Z,0
2017-10-25T02:53:02.476Z,0
2017-10-25T02:54:02.813Z,0
2017-10-25T02:55:02.791Z,0
2017-10-25T02:56:02.780Z,0
2017-10-25T02:57:02.761Z,0
2017-10-25T02:58:02.737Z,0
2017-10-25T02:59:02.391Z,0
2017-10-25T03:00:02.717Z,0
2017-10-25T03:01:02.383Z,0
2017-10-25T03:02:02.694Z,0
2017-10-25T03:03:03.003Z,0
2017-10-25T03:04:02.660Z,0
2017-10-25T03:05:03.009Z,0
2017-10-25T03:06:02.978Z,0
2017-10-25T03:07:02.967Z,0
2017-10-25T03:08:02.280Z,0
2017-10-25T03:09:02.597Z,0
2017-10-25T03:10:02.266Z,0
2017-10-25T03:11:02.246Z,0
2017-10-25T03:12:02.227Z,0
2017-10-25T03:13:02.548Z,0
2017-10-25T03:14:02.889Z,0
2017-10-25T03:15:02.517Z,0
2017-10-25T03:16:02.520Z,0
2017-10-25T03:17:02.495Z,0
2017-10-25T03:18:02.475Z,0
2017-10-25T03:19:02.808Z,0
2017-10-25T03:20:02.456Z,0
2017-10-25T03:21:02.111Z,0
2017-10-25T03:22:02.766Z,0
2017-10-25T03:23:02.415Z,0
2017-10-25T03:24:02.401Z,0
2017-10-25T03:25:02.590Z,0
2017-10-25T03:26:02.381Z,0
2017-10-25T03:27:02.019Z,0
2017-10-25T03:28:02.345Z,0
2017-10-25T03:29:02.329Z,0
2017-10-25T03:30:02.321Z,0
2017-10-25T03:31:02.316Z,0
2017-10-25T03:32:01.627Z,0
2017-10-25T03:33:01.954Z,0
2017-10-25T03:34:02.272Z,0
2017-10-25T03:35:01.922Z,0
2017-10-25T03:36:01.918Z,0
2017-10-25T03:37:02.558Z,0
2017-10-25T03:38:01.883Z,0
2017-10-25T03:39:02.200Z,0
2017-10-25T03:40:01.862Z,0
2017-10-25T03:41:02.531Z,0
2017-10-25T03:42:01.831Z,0
2017-10-25T03:43:01.814Z,0
2017-10-25T03:44:02.144Z,0
2017-10-25T03:45:02.120Z,0
2017-10-25T03:46:01.777Z,0
2017-10-25T03:47:01.436Z,0
2017-10-25T03:48:02.077Z,0
2017-10-25T03:49:02.068Z,0
2017-10-25T03:50:02.063Z,0
2017-10-25T03:51:01.710Z,0
2017-10-25T03:52:01.712Z,0
2017-10-25T03:53:02.016Z,0
2017-10-25T03:54:01.996Z,0
2017-10-25T03:55:01.989Z,0
2017-10-25T03:56:01.644Z,0
2017-10-25T03:57:02.306Z,0
2017-10-25T03:58:01.629Z,0
2017-10-25T03:59:01.606Z,0
2017-10-25T04:00:02.258Z,0
2017-10-25T04:01:01.609Z,0
2017-10-25T04:02:02.233Z,0
2017-10-25T04:03:02.219Z,0
2017-10-25T04:04:01.866Z,0
2017-10-25T04:05:01.869Z,0
2017-10-25T04:06:01.512Z,0
2017-10-25T04:07:02.174Z,0
2017-10-25T04:08:01.485Z,0
2017-10-25T04:09:01.150Z,0
2017-10-25T04:10:01.802Z,0
2017-10-25T04:11:01.782Z,0
2017-10-25T04:12:01.438Z,0
2017-10-25T04:13:01.436Z,0
2017-10-25T04:14:01.799Z,0
2017-10-25T04:15:01.739Z,0
2017-10-25T04:16:01.725Z,0
2017-10-25T04:17:01.376Z,0
2017-10-25T04:18:01.688Z,0
2017-10-25T04:19:01.007Z,0
2017-10-25T04:20:01.660Z,0
2017-10-25T04:21:01.654Z,0
2017-10-25T04:22:01.309Z,0
2017-10-25T04:23:00.961Z,0
2017-10-25T04:24:01.950Z,0
2017-10-25T04:25:01.260Z,0
2017-10-25T04:26:01.922Z,0
2017-10-25T04:27:01.579Z,0
2017-10-25T04:28:01.229Z,0
2017-10-25T04:29:01.218Z,0
2017-10-25T04:30:01.651Z,0
2017-10-25T04:31:00.854Z,0
2017-10-25T04:32:01.521Z,0
2017-10-25T04:33:01.165Z,0
2017-10-25T04:34:01.484Z,0
2017-10-25T04:35:01.470Z,0
2017-10-25T04:36:01.467Z,0
2017-10-25T04:37:01.111Z,0
2017-10-25T04:38:01.444Z,0
2017-10-25T04:39:01.424Z,0
2017-10-25T04:40:01.075Z,0
2017-10-25T04:41:01.726Z,0
2017-10-25T04:42:01.712Z,0
2017-10-25T04:43:01.699Z,0
2017-10-25T04:44:01.364Z,0
2017-10-25T04:45:01.005Z,0
2017-10-25T04:46:00.997Z,0
2017-10-25T04:47:00.647Z,0
2017-10-25T04:48:00.965Z,0
2017-10-25T04:49:01.629Z,0
2017-10-25T04:50:00.940Z,0
2017-10-25T04:51:00.930Z,0
2017-10-25T04:52:00.952Z,0
2017-10-25T04:53:01.258Z,0
2017-10-25T04:54:01.240Z,0
2017-10-25T04:55:00.976Z,0
2017-10-25T04:56:00.538Z,0
2017-10-25T04:57:01.188Z,0
2017-10-25T04:58:00.844Z,0
2017-10-25T04:59:00.823Z,0
2017-10-25T05:00:01.491Z,0
2017-10-25T05:01:01.129Z,0
2017-10-25T05:02:01.130Z,0
2017-10-25T05:03:00.768Z,0
2017-10-25T05:04:01.095Z,0
2017-10-25T05:05:01.082Z,0
2017-10-25T05:06:01.401Z,0
2017-10-25T05:07:00.721Z,0
2017-10-25T05:08:01.378Z,0
2017-10-25T05:09:01.029Z,0
2017-10-25T05:10:01.359Z,0
2017-10-25T05:11:00.667Z,0
2017-10-25T05:12:01.325Z,0
2017-10-25T05:13:00.973Z,0
2017-10-25T05:14:00.293Z,0
2017-10-25T05:15:01.384Z,0
2017-10-25T05:16:00.940Z,0
2017-10-25T05:17:00.925Z,0
2017-10-25T05:18:00.577Z,0
2017-10-25T05:19:00.936Z,0
2017-10-25T05:20:00.884Z,0
2017-10-25T05:21:00.869Z,0
2017-10-25T05:22:00.525Z,0
2017-10-25T05:23:00.509Z,0
2017-10-25T05:24:00.500Z,0
2017-10-25T05:25:00.688Z,0
2017-10-25T05:26:00.479Z,0
2017-10-25T05:27:00.459Z,0
2017-10-25T05:28:00.794Z,0
2017-10-25T05:29:00.772Z,0
2017-10-25T05:30:01.108Z,0
2017-10-25T05:31:00.414Z,0
2017-10-25T05:32:01.066Z,0
2017-10-25T05:33:00.722Z,0
2017-10-25T05:34:00.055Z,0
2017-10-25T05:35:00.694Z,0
2017-10-25T05:36:00.348Z,0
2017-10-25T05:37:00.667Z,0
2017-10-25T05:38:00.320Z,0
2017-10-25T05:39:00.301Z,0
2017-10-25T05:40:00.646Z,0
2017-10-25T05:40:59.944Z,0
2017-10-25T05:42:00.261Z,0
2017-10-25T05:43:00.588Z,0
2017-10-25T05:43:59.906Z,0
2017-10-25T05:45:00.902Z,0
2017-10-25T05:46:00.558Z,4
2017-10-25T05:47:00.867Z,4
2017-10-25T05:47:59.865Z,4
2017-10-25T05:49:00.183Z,4
2017-10-25T05:50:00.937Z,4
2017-10-25T05:51:00.817Z,8
2017-10-25T05:52:00.799Z,8
2017-10-25T05:53:00.469Z,4
2017-10-25T05:54:00.123Z,8
2017-10-25T05:55:00.103Z,8
2017-10-25T05:56:00.429Z,8
2017-10-25T05:57:00.405Z,12
2017-10-25T05:58:00.058Z,12
2017-10-25T05:59:00.377Z,12
2017-10-25T05:59:59.700Z,16
2017-10-25T06:01:00.352Z,20
2017-10-25T06:02:00.679Z,28
2017-10-25T06:02:59.666Z,28
2017-10-25T06:03:59.978Z,36
2017-10-25T06:04:59.976Z,32
2017-10-25T06:06:00.289Z,32
2017-10-25T06:06:59.943Z,32
2017-10-25T06:08:00.256Z,44
2017-10-25T06:08:59.910Z,48
2017-10-25T06:10:00.586Z,52
2017-10-25T06:10:59.885Z,56
2017-10-25T06:12:00.236Z,52
2017-10-25T06:13:00.557Z,48
2017-10-25T06:14:00.183Z,76
2017-10-25T06:15:00.524Z,92
2017-10-25T06:15:59.821Z,96
2017-10-25T06:16:59.806Z,108
2017-10-25T06:18:00.126Z,100
2017-10-25T06:18:59.783Z,96
2017-10-25T06:20:00.442Z,156
2017-10-25T06:21:00.097Z,196
2017-10-25T06:22:00.423Z,228
2017-10-25T06:23:00.071Z,248
2017-10-25T06:24:00.079Z,272
2017-10-25T06:24:59.705Z,292
2017-10-25T06:26:00.128Z,308
2017-10-25T06:27:00.028Z,320
2017-10-25T06:27:59.998Z,328
2017-10-25T06:29:00.329Z,312
2017-10-25T06:29:59.636Z,320
2017-10-25T06:30:59.967Z,392
2017-10-25T06:31:59.968Z,412
2017-10-25T06:32:59.942Z,436
2017-10-25T06:34:00.251Z,468
2017-10-25T06:34:59.903Z,528
2017-10-25T06:35:59.994Z,572
2017-10-25T06:36:59.217Z,588
2017-10-25T06:37:59.199Z,632
2017-10-25T06:38:59.851Z,600
2017-10-25T06:39:59.509Z,624
2017-10-25T06:40:59.500Z,624
2017-10-25T06:41:59.150Z,632
2017-10-25T06:42:59.475Z,696
2017-10-25T06:43:59.459Z,824
2017-10-25T06:45:00.112Z,980
2017-10-25T06:46:00.199Z,1052
2017-10-25T06:47:00.091Z,1052
2017-10-25T06:48:00.080Z,984
2017-10-25T06:49:00.072Z,892
2017-10-25T06:50:00.048Z,996
2017-10-25T06:51:00.041Z,1120
2017-10-25T06:51:59.349Z,1212
2017-10-25T06:52:59.340Z,1264
2017-10-25T06:53:59.325Z,1260
2017-10-25T06:54:59.642Z,1220
2017-10-25T06:55:59.303Z,1324
2017-10-25T06:56:59.629Z,1368
2017-10-25T06:57:59.944Z,1364
2017-10-25T06:58:59.642Z,1364
2017-10-25T06:59:58.922Z,1384
2017-10-25T07:00:59.913Z,1224
2017-10-25T07:01:59.224Z,1128
2017-10-25T07:02:59.542Z,1284
2017-10-25T07:03:59.533Z,1312
2017-10-25T07:04:59.847Z,1308
2017-10-25T07:05:59.617Z,1132
2017-10-25T07:06:59.833Z,1584
2017-10-25T07:07:59.823Z,1952
2017-10-25T07:08:59.482Z,1764
2017-10-25T07:09:59.133Z,1672
2017-10-25T07:10:58.781Z,1812
2017-10-25T07:11:59.770Z,1904
2017-10-25T07:12:59.083Z,1984
2017-10-25T07:13:59.403Z,2044
2017-10-25T07:14:58.723Z,1952
2017-10-25T07:15:59.378Z,1988
2017-10-25T07:16:59.371Z,2076
2017-10-25T07:17:59.020Z,2084
2017-10-25T07:18:59.019Z,2120
2017-10-25T07:19:59.332Z,2136
2017-10-25T07:20:59.656Z,2084
2017-10-25T07:21:58.640Z,2052
2017-10-25T07:22:59.304Z,2148
2017-10-25T07:23:59.612Z,2196
2017-10-25T07:24:59.811Z,2204
2017-10-25T07:25:59.265Z,2228
2017-10-25T07:26:59.255Z,2340
2017-10-25T07:27:59.234Z,2468
2017-10-25T07:28:58.885Z,2496
2017-10-25T07:29:59.215Z,2412
2017-10-25T07:30:59.200Z,2308
2017-10-25T07:31:59.649Z,2388
2017-10-25T07:32:59.165Z,2440
2017-10-25T07:33:59.498Z,2536
2017-10-25T07:34:59.151Z,2388
2017-10-25T07:35:59.143Z,2432
2017-10-25T07:36:59.116Z,2492
2017-10-25T07:37:59.110Z,2500
2017-10-25T07:38:59.099Z,2468
2017-10-25T07:39:58.758Z,1908
2017-10-25T07:40:59.067Z,1844
2017-10-25T07:41:58.826Z,1816
2017-10-25T07:42:59.044Z,2016
2017-10-25T07:43:58.363Z,2464
2017-10-25T07:44:59.349Z,2804
2017-10-25T07:45:58.667Z,3036
2017-10-25T07:46:58.992Z,3184
2017-10-25T07:47:59.329Z,3040
2017-10-25T07:48:58.982Z,2800
2017-10-25T07:49:58.957Z,2488
2017-10-25T07:50:58.612Z,2484
2017-10-25T07:51:59.038Z,2556
2017-10-25T07:52:58.582Z,2876
2017-10-25T07:53:59.252Z,3076
2017-10-25T07:54:58.903Z,2832
2017-10-25T07:55:58.883Z,2648
2017-10-25T07:56:58.874Z,2780
2017-10-25T07:57:59.193Z,2944
2017-10-25T07:58:58.180Z,3108
2017-10-25T07:59:58.833Z,3052
2017-10-25T08:00:58.825Z,2780
2017-10-25T08:01:58.523Z,2612
2017-10-25T08:02:58.127Z,2916
2017-10-25T08:03:59.123Z,3364
2017-10-25T08:04:58.778Z,3184
2017-10-25T08:05:58.424Z,3164
2017-10-25T08:06:58.759Z,3572
2017-10-25T08:07:58.075Z,3980
2017-10-25T08:08:59.059Z,4168
2017-10-25T08:09:58.710Z,4340
2017-10-25T08:10:58.364Z,4324
2017-10-25T08:11:58.691Z,4176
2017-10-25T08:12:59.016Z,5308
2017-10-25T08:13:58.664Z,4688
2017-10-25T08:14:58.323Z,5268
2017-10-25T08:15:58.641Z,4796
2017-10-25T08:16:58.415Z,4928
2017-10-25T08:17:58.286Z,4560
2017-10-25T08:18:58.268Z,4756
2017-10-25T08:19:58.254Z,4840
2017-10-25T08:20:58.576Z,4760
2017-10-25T08:21:58.570Z,4464
2017-10-25T08:22:58.885Z,4524
2017-10-25T08:23:58.546Z,4056
2017-10-25T08:24:58.865Z,3984
2017-10-25T08:25:58.187Z,3668
2017-10-25T08:26:58.612Z,3612
2017-10-25T08:27:58.501Z,4132
2017-10-25T08:28:58.151Z,3644
2017-10-25T08:29:58.470Z,3436
2017-10-25T08:30:58.802Z,4176
2017-10-25T08:31:58.118Z,4112
2017-10-25T08:32:58.103Z,3760
2017-10-25T08:33:58.428Z,4372
2017-10-25T08:34:58.441Z,4080
2017-10-25T08:35:58.417Z,4068
2017-10-25T08:36:58.908Z,4264
2017-10-25T08:37:58.503Z,4532
2017-10-25T08:38:58.062Z,4884
2017-10-25T08:39:58.711Z,5316
2017-10-25T08:40:57.690Z,5068
2017-10-25T08:41:57.665Z,5836
2017-10-25T08:42:57.990Z,6764
2017-10-25T08:43:58.324Z,6264
2017-10-25T08:44:58.690Z,5676
2017-10-25T08:45:58.285Z,5400
2017-10-25T08:46:57.933Z,5556
2017-10-25T08:47:57.941Z,4568
2017-10-25T08:48:58.254Z,4320
2017-10-25T08:49:58.247Z,5152
2017-10-25T08:50:58.229Z,5252
2017-10-25T08:51:58.219Z,5564
2017-10-25T08:52:57.871Z,5972
2017-10-25T08:53:58.188Z,5140
2017-10-25T08:54:57.854Z,4540
2017-10-25T08:55:57.838Z,4776
2017-10-25T08:56:58.157Z,4508
2017-10-25T08:57:58.485Z,4484
2017-10-25T08:58:58.127Z,5312
2017-10-25T08:59:57.459Z,6268
2017-10-25T09:00:58.118Z,4548
2017-10-25T09:01:57.765Z,4956
2017-10-25T09:02:57.752Z,6580
2017-10-25T09:03:57.408Z,6440
2017-10-25T09:04:58.072Z,5412
2017-10-25T09:05:57.391Z,4264
2017-10-25T09:06:57.711Z,3968
2017-10-25T09:07:58.032Z,3908
2017-10-25T09:08:58.026Z,3196
2017-10-25T09:09:58.009Z,2692
2017-10-25T09:10:57.667Z,3464
2017-10-25T09:11:58.332Z,3636
2017-10-25T09:12:57.648Z,4460
2017-10-25T09:13:57.975Z,5376
2017-10-25T09:14:57.621Z,5104
2017-10-25T09:15:58.269Z,5160
2017-10-25T09:16:57.929Z,4792
2017-10-25T09:17:58.014Z,5196
2017-10-25T09:18:58.292Z,5472
2017-10-25T09:19:57.556Z,5316
2017-10-25T09:20:57.549Z,4992
2017-10-25T09:21:57.197Z,4444
2017-10-25T09:22:57.530Z,5148
2017-10-25T09:23:57.510Z,5508
2017-10-25T09:24:57.706Z,8080
2017-10-25T09:25:58.159Z,7136
2017-10-25T09:26:57.812Z,6088
2017-10-25T09:27:57.563Z,4396
2017-10-25T09:28:57.789Z,5708
2017-10-25T09:29:57.777Z,7356
2017-10-25T09:30:57.779Z,6612
2017-10-25T09:31:57.767Z,6700
2017-10-25T09:32:57.743Z,5528
2017-10-25T09:33:57.064Z,5748
2017-10-25T09:34:58.051Z,6732
2017-10-25T09:35:57.043Z,3792
2017-10-25T09:36:57.707Z,3224
2017-10-25T09:37:58.133Z,4024
2017-10-25T09:38:57.672Z,5440
2017-10-25T09:39:57.331Z,6392
2017-10-25T09:40:57.651Z,6404
2017-10-25T09:41:57.310Z,6276
2017-10-25T09:42:57.963Z,3056
2017-10-25T09:43:57.290Z,2456
2017-10-25T09:44:57.944Z,2300
2017-10-25T09:45:57.607Z,2132
2017-10-25T09:46:57.253Z,2736
2017-10-25T09:47:57.669Z,3512
2017-10-25T09:48:57.947Z,2476
2017-10-25T09:49:57.554Z,2780
2017-10-25T09:50:57.539Z,4096
2017-10-25T09:51:57.217Z,5944
2017-10-25T09:52:57.513Z,6028
2017-10-25T09:53:57.516Z,5464
2017-10-25T09:54:57.155Z,4516
2017-10-25T09:55:57.488Z,3592
2017-10-25T09:56:56.806Z,4044
2017-10-25T09:57:57.703Z,4116
2017-10-25T09:58:57.473Z,3764
2017-10-25T09:59:57.107Z,3352
2017-10-25T10:00:57.101Z,2508
2017-10-25T10:01:57.746Z,1984
2017-10-25T10:02:57.392Z,1748
2017-10-25T10:03:57.388Z,1616
2017-10-25T10:04:57.040Z,1844
2017-10-25T10:05:57.361Z,2104
2017-10-25T10:06:57.014Z,2168
2017-10-25T10:07:57.100Z,2060
2017-10-25T10:08:56.993Z,1956
2017-10-25T10:09:57.316Z,1900
2017-10-25T10:10:56.963Z,1428
2017-10-25T10:11:57.289Z,1416
2017-10-25T10:12:56.940Z,1728
2017-10-25T10:13:57.291Z,1324
2017-10-25T10:14:57.267Z,1096
2017-10-25T10:15:57.254Z,1128
2017-10-25T10:16:56.563Z,1340
2017-10-25T10:17:56.883Z,1640
2017-10-25T10:18:57.212Z,1848
2017-10-25T10:19:56.872Z,1792
2017-10-25T10:20:57.193Z,1668
2017-10-25T10:21:56.839Z,1492
2017-10-25T10:22:56.494Z,1432
2017-10-25T10:24:57.474Z,1352
2017-10-25T10:25:57.494Z,1280
2017-10-25T10:26:57.452Z,1176
2017-10-25T10:27:57.105Z,1108
2017-10-25T10:28:56.754Z,1104
2017-10-25T10:29:56.407Z,1144
2017-10-25T10:30:57.407Z,1200
2017-10-25T10:31:57.049Z,1300
2017-10-25T10:32:57.376Z,1332
2017-10-25T10:33:56.702Z,1240
2017-10-25T10:34:57.022Z,1248
2017-10-25T10:35:57.000Z,1304
2017-10-25T10:36:56.658Z,1440
2017-10-25T10:37:56.677Z,1608
2017-10-25T10:38:56.730Z,1744
2017-10-25T10:39:56.621Z,2224
2017-10-25T10:40:56.613Z,2596
2017-10-25T10:41:56.598Z,1912
2017-10-25T10:42:56.914Z,1880
2017-10-25T10:43:56.902Z,1904
2017-10-25T10:44:56.551Z,1580
2017-10-25T10:45:56.891Z,1220
2017-10-25T10:46:56.869Z,1104
2017-10-25T10:47:57.203Z,1116
2017-10-25T10:48:56.271Z,1124
2017-10-25T10:49:57.166Z,1144
2017-10-25T10:50:56.501Z,1124
2017-10-25T10:51:56.807Z,1096
2017-10-25T10:52:56.789Z,1080
2017-10-25T10:53:56.782Z,1200
2017-10-25T10:54:56.431Z,1548
2017-10-25T10:55:56.759Z,2064
2017-10-25T10:56:56.412Z,3440
2017-10-25T10:57:56.402Z,3224
2017-10-25T10:58:56.388Z,2700
2017-10-25T10:59:56.372Z,2628
2017-10-25T11:00:56.694Z,3288
2017-10-25T11:01:56.352Z,3576
2017-10-25T11:02:56.684Z,3356
2017-10-25T11:03:56.659Z,3000
2017-10-25T11:04:56.652Z,3604
2017-10-25T11:05:56.643Z,3852
2017-10-25T11:06:56.635Z,3664
2017-10-25T11:07:56.270Z,3276
2017-10-25T11:08:56.950Z,3380
2017-10-25T11:09:57.015Z,3672
2017-10-25T11:10:56.577Z,4068
2017-10-25T11:11:56.576Z,4180
2017-10-25T11:12:55.877Z,3848
2017-10-25T11:13:56.537Z,3468
2017-10-25T11:14:56.858Z,2980
2017-10-25T11:15:56.508Z,3140
2017-10-25T11:16:56.838Z,3724
2017-10-25T11:17:56.494Z,3568
2017-10-25T11:18:56.806Z,2904
2017-10-25T11:19:56.572Z,2772
2017-10-25T11:20:56.785Z,3184
2017-10-25T11:21:56.439Z,4892
2017-10-25T11:22:56.433Z,4904
2017-10-25T11:23:56.086Z,3704
2017-10-25T11:24:56.270Z,3412
2017-10-25T11:25:55.721Z,2984
2017-10-25T11:26:56.046Z,2548
2017-10-25T11:27:56.720Z,2252
2017-10-25T11:28:56.360Z,2288
2017-10-25T11:29:56.440Z,2012
2017-10-25T11:30:56.678Z,1820
2017-10-25T11:31:56.321Z,2008
2017-10-25T11:32:56.307Z,2060
2017-10-25T11:33:56.297Z,2068
2017-10-25T11:34:56.291Z,1740
2017-10-25T11:35:55.946Z,1612
2017-10-25T11:36:55.589Z,1880
2017-10-25T11:37:55.923Z,2060
2017-10-25T11:38:55.566Z,2424
2017-10-25T11:39:56.663Z,2700
2017-10-25T11:40:56.210Z,2424
2017-10-25T11:41:56.540Z,2212
2017-10-25T11:42:55.861Z,1904
2017-10-25T11:43:56.177Z,1504
2017-10-25T11:44:56.500Z,1392
2017-10-25T11:45:56.162Z,1316
2017-10-25T11:46:55.808Z,1432
2017-10-25T11:47:55.804Z,1868
2017-10-25T11:48:56.117Z,2324
2017-10-25T11:49:55.436Z,2108
2017-10-25T11:50:55.423Z,2124
2017-10-25T11:51:56.084Z,1844
2017-10-25T11:52:56.415Z,1624
2017-10-25T11:53:55.721Z,1804
2017-10-25T11:54:55.374Z,1884
2017-10-25T11:55:56.047Z,1980
2017-10-25T11:56:55.354Z,1916
2017-10-25T11:57:56.348Z,1932
2017-10-25T11:58:55.664Z,2084
2017-10-25T11:59:55.654Z,2136
2017-10-25T12:00:55.973Z,2048
2017-10-25T12:01:55.957Z,1920
2017-10-25T12:02:56.284Z,1784
2017-10-25T12:03:55.932Z,1908
2017-10-25T12:04:56.264Z,1820
2017-10-25T12:05:55.914Z,1708
2017-10-25T12:06:55.239Z,1796
2017-10-25T12:07:55.564Z,1932
2017-10-25T12:08:56.211Z,1900
2017-10-25T12:09:55.528Z,1940
2017-10-25T12:10:56.189Z,2468
2017-10-25T12:11:55.501Z,2832
2017-10-25T12:12:55.831Z,2848
2017-10-25T12:13:55.484Z,2840
2017-10-25T12:14:56.140Z,3048
2017-10-25T12:15:55.791Z,3096
2017-10-25T12:16:56.104Z,3124
2017-10-25T12:17:55.437Z,3492
2017-10-25T12:18:56.089Z,3716
2017-10-25T12:19:55.411Z,2952
2017-10-25T12:20:55.726Z,2592
2017-10-25T12:21:55.381Z,2324
2017-10-25T12:22:55.376Z,2400
2017-10-25T12:23:56.029Z,2232
2017-10-25T12:24:55.676Z,2248
2017-10-25T12:25:55.345Z,2192
2017-10-25T12:26:55.327Z,2040
2017-10-25T12:27:55.643Z,1856
2017-10-25T12:28:55.964Z,1832
2017-10-25T12:29:55.289Z,2008
2017-10-25T12:30:55.617Z,1936
2017-10-25T12:31:55.589Z,1860
2017-10-25T12:32:55.251Z,2348
2017-10-25T12:33:54.899Z,2400
2017-10-25T12:34:55.559Z,1868
2017-10-25T12:35:55.544Z,2080
2017-10-25T12:36:55.194Z,2396
2017-10-25T12:37:55.856Z,2684
2017-10-25T12:38:55.842Z,2376
2017-10-25T12:39:55.489Z,2332
2017-10-25T12:40:55.818Z,2720
2017-10-25T12:41:55.137Z,2720
2017-10-25T12:42:54.792Z,2516
2017-10-25T12:43:54.778Z,2780
2017-10-25T12:44:55.099Z,3128
2017-10-25T12:45:55.420Z,3204
2017-10-25T12:46:55.079Z,2992
2017-10-25T12:47:55.066Z,2940
2017-10-25T12:48:55.065Z,2464
2017-10-25T12:49:55.371Z,2384
2017-10-25T12:50:55.466Z,2484
2017-10-25T12:51:54.688Z,2316
2017-10-25T12:52:55.337Z,2192
2017-10-25T12:53:55.004Z,2192
2017-10-25T12:54:55.637Z,2028
2017-10-25T12:55:54.977Z,2048
2017-10-25T12:56:54.618Z,2120
2017-10-25T12:57:55.267Z,2152
2017-10-25T12:58:55.269Z,2120
2017-10-25T12:59:54.917Z,1884
2017-10-25T13:00:55.248Z,1780
2017-10-25T13:01:55.234Z,1784
2017-10-25T13:02:55.233Z,1632
2017-10-25T13:03:54.887Z,1664
2017-10-25T13:04:55.523Z,1812
2017-10-25T13:05:55.564Z,1820
2017-10-25T13:06:55.496Z,2048
2017-10-25T13:07:55.485Z,1884
2017-10-25T13:08:55.151Z,1788
2017-10-25T13:09:55.124Z,2044
2017-10-25T13:10:55.114Z,2052
2017-10-25T13:11:55.096Z,2192
2017-10-25T13:12:55.427Z,2316
2017-10-25T13:13:55.072Z,2460
2017-10-25T13:14:55.405Z,2396
2017-10-25T13:15:54.390Z,2388
2017-10-25T13:16:55.364Z,2680
2017-10-25T13:17:55.022Z,2680
2017-10-25T13:18:55.017Z,2632
2017-10-25T13:19:55.018Z,2156
2017-10-25T13:20:55.033Z,1832
2017-10-25T13:21:54.979Z,1644
2017-10-25T13:22:54.958Z,2048
2017-10-25T13:23:54.948Z,1728
2017-10-25T13:24:54.606Z,1700
2017-10-25T13:25:54.924Z,2084
2017-10-25T13:26:54.917Z,2496
2017-10-25T13:27:55.231Z,2668
2017-10-25T13:28:55.216Z,2072
2017-10-25T13:29:54.556Z,2260
2017-10-25T13:30:54.532Z,2640
2017-10-25T13:31:54.512Z,3280
2017-10-25T13:32:54.844Z,4060
2017-10-25T13:33:54.839Z,4028
2017-10-25T13:34:54.822Z,3664
2017-10-25T13:35:54.463Z,3096
2017-10-25T13:36:54.796Z,3256
2017-10-25T13:37:54.448Z,2940
2017-10-25T13:38:54.768Z,2576
2017-10-25T13:39:55.089Z,1864
2017-10-25T13:40:54.072Z,2408
2017-10-25T13:41:54.394Z,2524
2017-10-25T13:42:54.046Z,2376
2017-10-25T13:43:55.029Z,2564
2017-10-25T13:44:54.356Z,2636
2017-10-25T13:45:55.021Z,2244
2017-10-25T13:46:55.004Z,2292
2017-10-25T13:47:54.986Z,2692
2017-10-25T13:48:54.968Z,2572
2017-10-25T13:49:54.625Z,2936
2017-10-25T13:50:54.287Z,2528
2017-10-25T13:51:54.949Z,2268
2017-10-25T13:52:54.933Z,2060
2017-10-25T13:53:53.906Z,1904
2017-10-25T13:54:53.892Z,1688
2017-10-25T13:55:54.210Z,1724
2017-10-25T13:56:54.207Z,1576